createdAt,value
2023-01-20T07:23:34.839Z,9.95
2023-01-20T07:26:04.103Z,7.53
2023-01-20T07:28:32.872Z,9.17
2023-01-20T07:31:05.405Z,9.00
2023-01-20T07:33:33.928Z,8.90
2023-01-20T07:36:02.380Z,8.67
2023-01-20T07:38:30.953Z,8.43
2023-01-20T07:41:03.473Z,9.47
2023-01-20T07:43:33.467Z,8.60
2023-01-20T07:46:03.330Z,9.00
2023-01-20T07:48:32.898Z,8.97
2023-01-20T07:51:03.376Z,8.80
2023-01-20T07:53:31.895Z,8.13
2023-01-20T07:56:03.516Z,7.87
2023-01-20T07:58:31.721Z,8.83
2023-01-20T08:01:06.860Z,8.60
2023-01-20T08:03:34.946Z,9.53
2023-01-20T08:06:03.902Z,8.77
2023-01-20T08:08:32.866Z,8.70
2023-01-20T08:11:02.671Z,8.07
2023-01-20T08:13:31.440Z,8.57
2023-01-20T08:16:02.098Z,8.30
2023-01-20T08:18:30.982Z,7.70
2023-01-20T08:20:59.958Z,8.40
2023-01-20T08:23:28.042Z,7.80
2023-01-20T08:25:59.975Z,7.53
2023-01-20T08:28:29.597Z,8.97
2023-01-20T08:31:05.122Z,6.50
2023-01-20T08:33:33.775Z,9.33
2023-01-20T08:36:06.650Z,6.83
2023-01-20T08:38:35.179Z,8.70
2023-01-20T08:41:03.696Z,7.47
2023-01-20T08:43:33.066Z,6.60
2023-01-20T08:46:01.747Z,8.10
2023-01-20T08:48:30.112Z,7.37
2023-01-20T08:50:58.280Z,7.00
2023-01-20T08:53:26.620Z,7.73
2023-01-20T08:55:59.008Z,8.00
2023-01-20T08:58:27.864Z,7.07
2023-01-20T09:00:57.395Z,6.60
2023-01-20T09:03:26.033Z,7.53
2023-01-20T09:05:54.128Z,7.00
2023-01-20T09:08:22.454Z,7.00
2023-01-20T09:10:50.483Z,7.57
2023-01-20T09:13:18.747Z,8.03
2023-01-20T09:15:52.749Z,7.30
2023-01-20T09:18:22.677Z,6.77
2023-01-20T09:20:50.878Z,6.80
2023-01-20T09:23:19.030Z,7.30
2023-01-20T09:25:46.919Z,7.70
2023-01-20T09:28:15.006Z,7.53
2023-01-20T09:30:43.749Z,6.70
2023-01-20T09:33:12.533Z,7.70
2023-01-20T09:35:41.823Z,7.70
2023-01-20T09:38:28.580Z,7.83
2023-01-20T09:41:24.369Z,9.20
2023-01-20T09:43:59.912Z,7.40
2023-01-20T09:46:44.174Z,7.30
2023-01-20T09:49:39.945Z,7.33
2023-01-20T09:52:31.750Z,6.57
2023-01-20T09:55:05.900Z,6.07
2023-01-20T09:57:40.565Z,5.90
2023-01-20T10:00:14.506Z,6.93
2023-01-20T10:02:45.795Z,5.68
2023-01-20T10:05:19.615Z,6.37
2023-01-20T10:07:55.570Z,7.13
2023-01-20T10:10:26.338Z,5.93
2023-01-20T10:13:03.346Z,6.57
2023-01-20T10:15:34.244Z,5.15
2023-01-20T10:18:06.198Z,6.47
2023-01-20T10:20:40.329Z,6.53
2023-01-20T10:23:12.342Z,5.83
2023-01-20T10:25:45.276Z,5.40
2023-01-20T10:28:16.467Z,6.27
2023-01-20T10:30:47.333Z,4.90
2023-01-20T10:33:21.038Z,6.17
2023-01-20T10:35:53.354Z,5.70
2023-01-20T10:38:29.638Z,4.50
2023-01-20T10:41:04.833Z,6.33
2023-01-20T10:43:32.992Z,6.33
2023-01-20T10:46:16.556Z,5.50
2023-01-20T10:49:06.959Z,4.60
2023-01-20T10:51:40.191Z,5.07
2023-01-20T10:54:22.356Z,4.90
2023-01-20T10:56:54.470Z,5.17
2023-01-20T10:59:29.442Z,4.60
2023-01-20T11:02:11.347Z,4.17
2023-01-20T11:04:40.841Z,4.50
2023-01-20T11:07:17.693Z,3.67
2023-01-20T11:09:49.297Z,4.30
2023-01-20T11:12:21.377Z,3.57
2023-01-20T11:14:49.941Z,3.80
2023-01-20T11:17:20.484Z,3.30
2023-01-20T11:19:51.107Z,4.20
2023-01-20T11:22:27.030Z,4.40
2023-01-20T11:24:59.608Z,5.60
2023-01-20T11:27:30.766Z,4.03
2023-01-20T11:30:02.161Z,3.90
2023-01-20T11:32:35.559Z,3.50
2023-01-20T11:35:20.453Z,3.90
2023-01-20T11:37:48.681Z,3.43
2023-01-20T11:40:24.413Z,4.20
2023-01-20T11:42:54.264Z,4.20
2023-01-20T11:45:28.971Z,4.30
2023-01-20T11:48:07.903Z,5.20
2023-01-20T11:50:41.599Z,4.70
2023-01-20T11:53:14.977Z,4.80
2023-01-20T11:55:50.203Z,5.50
2023-01-20T11:58:21.150Z,4.63
2023-01-20T12:00:52.106Z,5.70
2023-01-20T12:04:00.360Z,6.00
2023-01-20T12:06:32.225Z,6.13
2023-01-20T12:09:05.933Z,5.77
2023-01-20T12:11:38.312Z,6.13
2023-01-20T12:14:23.244Z,6.27
2023-01-20T12:17:09.731Z,6.33
2023-01-20T12:19:49.784Z,5.87
2023-01-20T12:22:23.550Z,5.20
2023-01-20T12:25:10.983Z,6.53
2023-01-20T12:27:46.598Z,5.70
2023-01-20T12:30:39.306Z,6.70
2023-01-20T12:33:17.265Z,6.00
2023-01-20T12:36:03.019Z,6.97
2023-01-20T12:38:38.435Z,7.27
2023-01-20T12:41:14.864Z,6.67
2023-01-20T12:43:56.990Z,7.87
2023-01-20T12:46:37.350Z,6.93
2023-01-20T12:49:40.695Z,7.90
2023-01-20T12:52:23.491Z,9.47
2023-01-20T12:55:13.639Z,9.73
2023-01-20T12:57:52.662Z,8.85
2023-01-20T13:00:49.020Z,9.10
2023-01-20T13:03:46.688Z,9.90
2023-01-20T13:06:39.643Z,10.40
2023-01-20T13:09:19.969Z,9.20
2023-01-20T13:12:00.058Z,8.90
2023-01-20T13:14:40.748Z,12.30
2023-01-20T13:17:19.387Z,10.90
2023-01-20T13:19:49.233Z,10.57
2023-01-20T13:22:20.407Z,10.87
2023-01-20T13:24:51.471Z,10.90
2023-01-20T13:27:26.539Z,10.50
2023-01-20T13:29:57.155Z,10.47
2023-01-20T13:32:34.902Z,11.90
2023-01-20T13:35:12.405Z,10.80
2023-01-20T13:37:40.601Z,11.30
2023-01-20T13:40:45.610Z,11.83
2023-01-20T13:43:38.803Z,10.43
2023-01-20T13:46:38.695Z,11.33
2023-01-20T13:49:22.908Z,11.30
2023-01-20T13:51:51.537Z,11.17
2023-01-20T13:54:38.941Z,11.40
2023-01-20T13:57:46.742Z,11.70
2023-01-20T14:00:17.406Z,10.87
2023-01-20T14:02:46.796Z,13.77
2023-01-20T14:05:29.170Z,12.20
2023-01-20T14:07:57.813Z,11.93
2023-01-20T14:10:26.239Z,11.73
2023-01-20T14:12:54.417Z,13.27
2023-01-20T14:15:28.841Z,11.20
2023-01-20T14:17:58.741Z,12.57
2023-01-20T14:20:29.763Z,13.50
2023-01-20T14:23:29.672Z,12.80
2023-01-20T14:26:03.707Z,13.10
2023-01-20T14:28:32.927Z,12.50
2023-01-20T14:31:14.199Z,11.70
2023-01-20T14:33:51.850Z,13.10
2023-01-20T14:36:23.945Z,12.67
2023-01-20T14:38:58.498Z,11.23
2023-01-20T14:41:48.018Z,11.63
2023-01-20T14:44:21.001Z,12.47
2023-01-20T14:46:51.033Z,12.37
2023-01-20T14:49:21.284Z,12.03
2023-01-20T14:51:51.961Z,12.63
2023-01-20T14:54:31.070Z,13.37
2023-01-20T14:57:00.202Z,13.40
2023-01-20T14:59:28.265Z,12.00
2023-01-20T15:02:00.932Z,13.50
2023-01-20T15:04:36.537Z,13.07
2023-01-20T15:07:06.521Z,13.37
2023-01-20T15:09:35.966Z,12.63
2023-01-20T15:12:36.155Z,11.60
2023-01-20T15:15:18.483Z,12.60
2023-01-20T15:18:24.474Z,11.80
2023-01-20T15:21:11.660Z,13.23
2023-01-20T15:23:46.111Z,11.73
2023-01-20T15:26:25.197Z,13.50
2023-01-20T15:28:53.159Z,14.50
2023-01-20T15:31:21.236Z,13.57
2023-01-20T15:33:49.665Z,12.90
2023-01-20T15:36:23.854Z,12.00
2023-01-20T15:38:53.253Z,13.93
2023-01-20T15:41:21.690Z,13.67
2023-01-20T15:43:52.489Z,11.97
2023-01-20T15:46:20.752Z,13.73
2023-01-20T15:48:48.714Z,13.57
2023-01-20T15:51:18.746Z,13.10
2023-01-20T15:53:47.621Z,12.53
2023-01-20T15:56:20.956Z,12.67
2023-01-20T15:58:49.918Z,13.10
2023-01-20T16:01:19.770Z,12.63
2023-01-20T16:03:48.142Z,12.30
2023-01-20T16:06:18.577Z,12.90
2023-01-20T16:08:48.748Z,12.90
2023-01-20T16:11:19.522Z,13.10
2023-01-20T16:13:47.846Z,13.63
2023-01-20T16:16:19.077Z,12.53
2023-01-20T16:18:48.088Z,13.43
2023-01-20T16:21:17.740Z,12.13
2023-01-20T16:23:46.159Z,13.70
2023-01-20T16:26:23.356Z,12.80
2023-01-20T16:28:51.569Z,19.90
2023-01-20T16:31:19.972Z,14.70
2023-01-20T16:33:48.365Z,12.97
2023-01-20T16:36:18.180Z,11.63
2023-01-20T16:38:47.013Z,13.73
2023-01-20T16:41:17.840Z,13.00
2023-01-20T16:43:47.384Z,12.80
2023-01-20T16:46:16.013Z,13.63
2023-01-20T16:48:44.250Z,14.73
2023-01-20T16:51:14.130Z,12.70
2023-01-20T16:53:42.594Z,14.53
2023-01-20T16:56:17.683Z,12.57
2023-01-20T16:58:50.255Z,12.47
2023-01-20T17:01:22.307Z,13.30
2023-01-20T17:03:51.551Z,13.63
2023-01-20T17:06:21.155Z,11.70
2023-01-20T17:08:51.216Z,12.83
2023-01-20T17:11:19.448Z,14.63
2023-01-20T17:13:49.562Z,13.73
2023-01-20T17:16:18.268Z,15.03
2023-01-20T17:18:50.036Z,14.20
2023-01-20T17:21:19.640Z,13.80
2023-01-20T17:23:50.804Z,13.17
2023-01-20T17:26:19.217Z,12.50
2023-01-20T17:28:49.359Z,13.80
2023-01-20T17:31:17.443Z,13.40
2023-01-20T17:33:47.075Z,13.63
2023-01-20T17:36:16.868Z,13.40
2023-01-20T17:38:45.547Z,13.40
2023-01-20T17:41:15.289Z,14.13
2023-01-20T17:43:46.013Z,13.93
2023-01-20T17:46:18.651Z,12.90
2023-01-20T17:48:47.621Z,13.53
2023-01-20T17:51:17.057Z,13.10
2023-01-20T17:53:45.261Z,13.63
2023-01-20T17:56:14.483Z,12.80
2023-01-20T17:58:43.720Z,14.47
2023-01-20T18:01:13.561Z,13.90
2023-01-20T18:03:43.685Z,12.73
2023-01-20T18:06:13.133Z,14.73
2023-01-20T18:08:41.650Z,14.57
2023-01-20T18:11:10.974Z,16.90
2023-01-20T18:13:39.477Z,14.90
2023-01-20T18:16:11.006Z,18.00
2023-01-20T18:18:39.514Z,18.47
2023-01-20T18:21:13.576Z,16.03
2023-01-20T18:23:42.444Z,15.27
2023-01-20T18:26:11.955Z,19.77
2023-01-20T18:28:39.842Z,17.30
2023-01-20T18:31:09.793Z,14.43
2023-01-20T18:33:40.032Z,16.50
2023-01-20T18:36:10.116Z,16.25
2023-01-20T18:38:43.257Z,14.03
2023-01-20T18:41:11.625Z,14.50
2023-01-20T18:43:40.266Z,14.57
2023-01-20T18:46:08.939Z,16.17
2023-01-20T18:48:39.760Z,15.80
2023-01-20T18:51:10.353Z,15.53
2023-01-20T18:53:39.664Z,13.25
2023-01-20T18:56:09.959Z,15.27
2023-01-20T18:58:39.651Z,13.13
2023-01-20T19:01:09.705Z,13.32
2023-01-20T19:03:38.656Z,14.30
2023-01-20T19:06:07.980Z,13.40
2023-01-20T19:08:36.121Z,13.15
2023-01-20T19:11:08.316Z,13.40
2023-01-20T19:13:37.007Z,13.60
2023-01-20T19:16:05.194Z,13.53
2023-01-20T19:18:33.256Z,13.57
2023-01-20T19:21:04.876Z,15.30
2023-01-20T19:23:32.932Z,13.73
2023-01-20T19:26:01.858Z,14.13
2023-01-20T19:28:31.486Z,12.57
2023-01-20T19:31:06.348Z,13.30
2023-01-20T19:33:34.803Z,12.50
2023-01-20T19:36:05.007Z,13.00
2023-01-20T19:38:34.249Z,14.30
2023-01-20T19:41:05.928Z,14.03
2023-01-20T19:43:36.118Z,14.40
2023-01-20T19:46:04.584Z,13.90
2023-01-20T19:48:33.122Z,15.70
2023-01-20T19:51:04.964Z,14.20
2023-01-20T19:53:33.747Z,15.23
2023-01-20T19:56:02.686Z,14.27
2023-01-20T19:58:30.830Z,14.20
2023-01-20T20:01:08.072Z,13.87
2023-01-20T20:03:36.664Z,15.83
2023-01-20T20:06:06.468Z,13.10
2023-01-20T20:08:36.149Z,14.70
2023-01-20T20:11:04.561Z,15.23
2023-01-20T20:13:32.963Z,13.07
2023-01-20T20:16:02.092Z,13.50
2023-01-20T20:18:31.477Z,13.60
2023-01-20T20:20:59.944Z,14.30
2023-01-20T20:23:27.966Z,15.87
2023-01-20T20:25:57.177Z,12.37
2023-01-20T20:28:25.454Z,12.60
2023-01-20T20:30:55.517Z,14.93
2023-01-20T20:33:24.230Z,13.80
2023-01-20T20:35:53.523Z,14.20
2023-01-20T20:38:21.496Z,14.53
2023-01-20T20:40:49.554Z,13.77
2023-01-20T20:43:17.555Z,12.47
2023-01-20T20:45:45.435Z,14.37
2023-01-20T20:48:13.517Z,13.70
2023-01-20T20:50:41.447Z,14.60
2023-01-20T20:53:10.997Z,14.10
2023-01-20T20:55:40.715Z,14.00
2023-01-20T20:58:09.248Z,13.50
2023-01-20T21:00:38.099Z,13.73
2023-01-20T21:03:07.799Z,11.90
2023-01-20T21:05:36.552Z,13.10
2023-01-20T21:08:06.006Z,13.43
2023-01-20T21:10:35.467Z,15.30
2023-01-20T21:13:06.897Z,13.67
2023-01-20T21:15:35.204Z,13.67
2023-01-20T21:18:03.167Z,14.30
2023-01-20T21:20:32.694Z,14.20
2023-01-20T21:23:01.910Z,16.13
2023-01-20T21:25:29.920Z,14.53
2023-01-20T21:27:59.157Z,14.63
2023-01-20T21:30:27.250Z,14.27
2023-01-20T21:32:55.136Z,14.00
2023-01-20T21:35:23.003Z,12.67
2023-01-20T21:37:51.607Z,16.20
2023-01-20T21:40:19.596Z,14.53
2023-01-20T21:42:47.569Z,14.80
2023-01-20T21:45:16.489Z,12.20
2023-01-20T21:47:44.382Z,12.10
2023-01-20T21:50:30.131Z,12.53
2023-01-20T21:52:58.052Z,13.17
2023-01-20T21:55:26.022Z,14.27
2023-01-20T21:57:54.249Z,14.73
2023-01-20T22:00:24.197Z,14.27
2023-01-20T22:02:52.102Z,13.93
2023-01-20T22:05:20.269Z,12.38
2023-01-20T22:07:48.987Z,12.40
2023-01-20T22:10:17.811Z,13.30
2023-01-20T22:12:46.059Z,12.77
2023-01-20T22:15:14.009Z,11.93
2023-01-20T22:17:43.324Z,12.60
2023-01-20T22:20:12.501Z,13.33
2023-01-20T22:22:40.431Z,13.57
2023-01-20T22:25:09.113Z,13.63
2023-01-20T22:27:36.974Z,13.43
2023-01-20T22:30:05.330Z,11.82
2023-01-20T22:32:33.441Z,12.73
2023-01-20T22:35:02.738Z,13.13
2023-01-20T22:37:32.294Z,14.20
2023-01-20T22:40:02.116Z,13.70
2023-01-20T22:42:30.051Z,12.00
2023-01-20T22:44:57.967Z,15.37
2023-01-20T22:47:26.021Z,14.37
2023-01-20T22:49:56.609Z,12.90
2023-01-20T22:52:26.097Z,14.37
2023-01-20T22:54:54.142Z,14.53
2023-01-20T22:57:22.271Z,14.20
2023-01-20T22:59:50.450Z,13.87
2023-01-20T23:02:18.364Z,14.50
2023-01-20T23:04:46.439Z,12.10
2023-01-20T23:07:14.927Z,15.00
2023-01-20T23:09:45.647Z,14.63
2023-01-20T23:12:13.630Z,14.70
2023-01-20T23:17:23.935Z,14.50
2023-01-20T23:19:51.911Z,12.10
2023-01-20T23:22:19.968Z,14.30
2023-01-20T23:24:49.304Z,14.80
